Time;durP1;ratioP1;P1;durP2;ratioP2;P2;SDS_P1;SDS_P2;PMS_P1;PMS_P2;Temp;Humidity;BMP_temperature;BMP_pressure;BME280_temperature;BME280_humidity;BME280_pressure;Samples;Min_cycle;Max_cycle;Signal;HPM_P1;HPM_P2
2022/09/11 00:02:47;;;;;;;0.20;0.00;;;25.40;99.90;;;;;;26045781;22;20167;-69
2022/09/11 00:12:52;;;;;;;0.20;0.00;;;25.20;99.90;;;;;;26047041;22;20180;-70
2022/09/11 00:22:57;;;;;;;0.20;0.00;;;25.20;99.90;;;;;;26017525;22;20156;-69
2022/09/11 00:33:02;;;;;;;0.20;0.00;;;25.10;99.90;;;;;;26048110;22;20195;-70
2022/09/11 00:43:09;;;;;;;0.20;0.00;;;25.10;99.90;;;;;;26046138;22;20179;-70
2022/09/11 00:53:17;;;;;;;0.20;0.00;;;25.20;99.90;;;;;;26020564;22;20203;-69
2022/09/11 01:03:21;;;;;;;0.20;0.10;;;25.30;99.90;;;;;;26046633;22;20174;-69
2022/09/11 01:13:33;;;;;;;0.20;0.10;;;25.20;99.90;;;;;;26019071;22;20195;-69
2022/09/11 01:24:11;;;;;;;0.20;0.00;;;25.40;99.90;;;;;;26045240;22;20159;-69
2022/09/11 01:34:21;;;;;;;0.20;0.00;;;25.30;99.90;;;;;;26041669;22;20186;-69
2022/09/11 01:44:29;;;;;;;0.20;0.00;;;25.20;99.90;;;;;;26040000;22;20167;-70
2022/09/11 01:54:40;;;;;;;0.20;0.00;;;25.30;99.90;;;;;;26041455;22;20208;-69
2022/09/11 02:04:49;;;;;;;0.20;0.00;;;25.20;99.90;;;;;;26041131;22;20179;-69
2022/09/11 02:14:55;;;;;;;0.20;0.00;;;25.00;99.90;;;;;;26039546;22;20179;-68
2022/09/11 02:25:01;;;;;;;0.20;0.00;;;24.80;99.90;;;;;;26014677;22;20171;-69
2022/09/11 02:35:08;;;;;;;0.20;0.00;;;24.80;99.90;;;;;;26042933;22;20190;-70
2022/09/11 02:45:23;;;;;;;0.20;0.00;;;24.70;99.90;;;;;;26014584;22;20168;-69
2022/09/11 02:55:39;;;;;;;0.20;0.00;;;24.50;99.90;;;;;;26014790;22;20214;-69
2022/09/11 03:05:43;;;;;;;0.20;0.00;;;24.40;99.90;;;;;;26015260;22;20180;-68
2022/09/11 03:15:48;;;;;;;0.20;0.00;;;24.40;99.90;;;;;;26041342;22;20166;-70
2022/09/11 03:25:53;;;;;;;0.20;0.00;;;24.40;99.90;;;;;;26042316;22;20819;-70
2022/09/11 03:35:58;;;;;;;0.20;0.00;;;24.30;99.90;;;;;;26041023;22;20172;-69
2022/09/11 03:46:02;;;;;;;0.20;0.10;;;24.10;99.90;;;;;;26040728;22;20160;-69
2022/09/11 03:56:08;;;;;;;0.20;0.00;;;24.30;99.90;;;;;;26042469;22;20191;-70
2022/09/11 04:06:12;;;;;;;0.20;0.00;;;24.40;99.90;;;;;;26047157;22;20196;-70
2022/09/11 04:16:19;;;;;;;0.20;0.00;;;24.40;99.90;;;;;;26022582;22;20160;-69
2022/09/11 04:26:25;;;;;;;0.20;0.00;;;24.30;99.90;;;;;;26045408;22;20184;-69
2022/09/11 04:36:30;;;;;;;0.20;0.00;;;24.30;99.90;;;;;;26021310;22;20171;-69
2022/09/11 04:46:34;;;;;;;0.20;0.10;;;24.30;99.90;;;;;;26045248;22;20181;-70
2022/09/11 04:56:39;;;;;;;0.20;0.00;;;24.30;99.90;;;;;;26047330;22;20192;-70
2022/09/11 05:06:47;;;;;;;0.20;0.10;;;24.50;99.90;;;;;;26041922;22;20659;-70
2022/09/11 05:16:53;;;;;;;0.20;0.00;;;24.60;99.90;;;;;;26042238;22;20152;-69
2022/09/11 05:26:58;;;;;;;0.20;0.00;;;24.70;99.90;;;;;;26041428;22;20183;-68
2022/09/11 05:37:03;;;;;;;0.20;0.10;;;24.60;99.90;;;;;;26014785;22;20219;-70
2022/09/11 05:47:07;;;;;;;0.20;0.00;;;24.80;99.90;;;;;;26045168;22;20188;-70
2022/09/11 05:57:12;;;;;;;0.20;0.00;;;24.80;99.90;;;;;;26041865;22;20188;-70
2022/09/11 06:07:16;;;;;;;0.20;0.00;;;24.60;99.90;;;;;;26017462;22;20188;-69
2022/09/11 06:17:22;;;;;;;0.20;0.03;;;24.80;99.90;;;;;;26040874;22;20166;-69
2022/09/11 06:27:25;;;;;;;0.20;0.05;;;24.90;99.90;;;;;;26016278;22;20191;-70
2022/09/11 06:37:30;;;;;;;0.20;0.00;;;25.10;99.90;;;;;;26013267;22;20160;-70
2022/09/11 06:47:34;;;;;;;0.20;0.00;;;25.30;99.90;;;;;;26016068;22;20184;-68
2022/09/11 06:57:40;;;;;;;0.20;0.00;;;25.40;99.90;;;;;;25912647;23;20252;-69
2022/09/11 07:07:47;;;;;;;0.20;0.00;;;25.70;99.90;;;;;;25912820;23;20305;-69
2022/09/11 07:17:53;;;;;;;0.20;0.08;;;26.10;99.90;;;;;;25910068;23;20161;-68
2022/09/11 07:27:57;;;;;;;0.20;0.00;;;26.70;99.90;;;;;;25911081;23;20188;-70
2022/09/11 07:38:03;;;;;;;0.20;0.00;;;26.70;99.90;;;;;;25921349;22;20251;-69
2022/09/11 07:48:06;;;;;;;0.20;0.10;;;26.80;99.90;;;;;;25922903;22;20188;-70
2022/09/11 07:58:12;;;;;;;0.20;0.10;;;27.10;99.90;;;;;;25994387;22;20164;-70
2022/09/11 08:08:16;;;;;;;0.20;0.00;;;27.20;99.90;;;;;;26045047;22;20199;-70
2022/09/11 08:18:21;;;;;;;0.20;0.00;;;26.90;99.90;;;;;;26046357;22;20171;-70
2022/09/11 08:28:25;;;;;;;0.20;0.00;;;27.00;99.90;;;;;;26045308;22;20172;-70
2022/09/11 08:38:30;;;;;;;0.20;0.00;;;26.80;99.90;;;;;;26045850;22;20157;-69
2022/09/11 08:48:43;;;;;;;0.20;0.00;;;26.60;99.90;;;;;;26043533;22;20208;-68
2022/09/11 08:59:11;;;;;;;0.20;0.00;;;26.90;99.90;;;;;;26010898;22;20152;-70
2022/09/11 09:09:23;;;;;;;0.20;0.00;;;27.00;99.90;;;;;;26011248;22;20195;-69
2022/09/11 09:19:34;;;;;;;0.20;0.00;;;26.90;99.90;;;;;;26039970;22;20159;-69
2022/09/11 09:29:41;;;;;;;0.20;0.00;;;26.80;99.90;;;;;;26011710;22;20209;-70
2022/09/11 09:39:47;;;;;;;0.20;0.00;;;27.50;99.90;;;;;;26039520;22;20171;-69
2022/09/11 09:49:51;;;;;;;0.20;0.00;;;27.20;99.90;;;;;;26036735;22;20212;-70
2022/09/11 10:00:05;;;;;;;0.20;0.10;;;27.30;99.90;;;;;;26037481;22;20175;-70
2022/09/11 10:10:22;;;;;;;0.20;0.00;;;27.40;99.90;;;;;;26010851;22;20309;-69
2022/09/11 10:20:30;;;;;;;0.20;0.00;;;27.50;99.90;;;;;;26038828;22;20161;-70
2022/09/11 10:30:36;;;;;;;0.20;0.00;;;28.00;99.90;;;;;;26036775;22;20184;-70
2022/09/11 10:40:46;;;;;;;0.20;0.10;;;27.70;99.90;;;;;;26009833;22;20155;-68
2022/09/11 10:51:05;;;;;;;0.20;0.00;;;27.40;99.90;;;;;;26035339;22;20206;-69
2022/09/11 11:01:10;;;;;;;0.20;0.10;;;27.50;99.90;;;;;;26004356;22;20152;-70
2022/09/11 11:11:31;;;;;;;0.20;0.00;;;27.80;99.90;;;;;;26035749;22;20211;-69
2022/09/11 11:21:53;;;;;;;0.20;0.00;;;27.70;99.90;;;;;;26036254;22;20220;-69
2022/09/11 11:32:11;;;;;;;0.20;0.00;;;27.70;99.90;;;;;;26035392;22;20184;-69
2022/09/11 11:42:25;;;;;;;0.20;0.00;;;27.60;99.90;;;;;;26035555;22;20223;-69
2022/09/11 11:52:49;;;;;;;0.20;0.00;;;27.60;99.90;;;;;;26010197;22;20207;-68
2022/09/11 12:02:58;;;;;;;0.20;0.10;;;28.20;99.90;;;;;;26033827;22;20175;-71
2022/09/11 12:13:03;;;;;;;0.20;0.00;;;28.60;99.90;;;;;;26035991;22;20184;-69
2022/09/11 12:23:34;;;;;;;0.20;0.00;;;30.20;99.90;;;;;;26011616;22;20148;-69
2022/09/11 12:33:55;;;;;;;0.20;0.00;;;29.90;99.90;;;;;;26045929;22;20235;-70
2022/09/11 12:44:02;;;;;;;0.20;0.00;;;30.20;99.90;;;;;;26045707;22;20172;-70
2022/09/11 12:54:14;;;;;;;0.20;0.00;;;30.90;99.90;;;;;;25988769;22;20207;-69
2022/09/11 13:04:23;;;;;;;0.20;0.00;;;31.20;99.90;;;;;;26042661;22;20164;-70
2022/09/11 13:14:54;;;;;;;0.20;0.00;;;31.90;99.90;;;;;;26043323;22;20183;-69
2022/09/11 13:25:11;;;;;;;0.20;0.10;;;31.20;99.90;;;;;;25944008;22;20187;-69
2022/09/11 13:35:18;;;;;;;0.20;0.00;;;31.40;99.90;;;;;;26042204;22;20184;-71
2022/09/11 13:45:27;;;;;;;0.20;0.00;;;31.60;99.90;;;;;;26015193;22;20179;-69
2022/09/11 13:55:31;;;;;;;0.20;0.00;;;32.10;99.90;;;;;;26041603;22;20196;-69
2022/09/11 14:05:36;;;;;;;0.20;0.00;;;31.50;99.90;;;;;;26015189;22;20188;-71
2022/09/11 14:15:43;;;;;;;0.20;0.00;;;32.80;99.90;;;;;;26041698;22;20180;-70
2022/09/11 14:26:08;;;;;;;0.20;0.00;;;31.00;99.90;;;;;;26009914;22;20167;-71
2022/09/11 14:36:18;;;;;;;0.20;0.00;;;29.40;99.90;;;;;;26037055;22;20183;-70
2022/09/11 14:46:27;;;;;;;0.20;0.00;;;29.60;99.90;;;;;;26038903;22;20160;-71
2022/09/11 14:56:33;;;;;;;0.20;0.00;;;28.80;99.90;;;;;;26037232;22;20219;-71
2022/09/11 15:06:38;;;;;;;0.20;0.00;;;28.90;99.90;;;;;;26035664;22;20184;-71
2022/09/11 15:16:42;;;;;;;0.20;0.00;;;29.50;99.90;;;;;;26040181;22;20207;-69
2022/09/11 15:26:47;;;;;;;0.20;0.00;;;29.70;99.90;;;;;;26010991;22;20160;-71
2022/09/11 15:36:51;;;;;;;0.20;0.00;;;29.60;99.90;;;;;;26011811;22;20195;-70
2022/09/11 15:46:58;;;;;;;0.20;0.00;;;30.50;99.90;;;;;;26035935;22;20240;-71
2022/09/11 15:57:02;;;;;;;0.20;0.00;;;29.20;99.90;;;;;;26041955;22;20192;-72
2022/09/11 16:07:08;;;;;;;0.20;0.00;;;28.80;99.90;;;;;;26044464;22;20180;-70
2022/09/11 16:17:15;;;;;;;0.20;0.00;;;28.70;99.90;;;;;;26041077;22;20187;-70
2022/09/11 16:27:21;;;;;;;0.20;0.00;;;28.60;99.90;;;;;;26011520;22;20176;-71
2022/09/11 16:37:25;;;;;;;0.20;0.00;;;28.20;99.90;;;;;;26035278;22;20172;-70
2022/09/11 16:47:31;;;;;;;0.20;0.00;;;28.00;99.90;;;;;;26045190;22;20160;-71
2022/09/11 16:57:35;;;;;;;0.20;0.00;;;28.00;99.90;;;;;;26040296;22;20200;-71
2022/09/11 17:07:40;;;;;;;0.20;0.00;;;28.00;99.90;;;;;;26013183;22;20185;-71
2022/09/11 17:17:44;;;;;;;0.20;0.00;;;27.90;99.90;;;;;;26014404;22;20176;-71
2022/09/11 17:27:49;;;;;;;0.20;0.00;;;27.70;99.90;;;;;;26017234;22;20164;-69
2022/09/11 17:37:53;;;;;;;0.20;0.00;;;27.50;99.90;;;;;;26042334;22;20212;-68
2022/09/11 17:48:00;;;;;;;0.20;0.00;;;27.30;99.90;;;;;;26042056;22;20171;-70
2022/09/11 17:58:04;;;;;;;0.20;0.00;;;27.10;99.90;;;;;;26037309;22;20565;-69
2022/09/11 18:08:09;;;;;;;0.20;0.00;;;26.90;99.90;;;;;;26035745;22;20195;-70
2022/09/11 18:18:13;;;;;;;0.20;0.00;;;26.90;99.90;;;;;;26039130;22;20191;-72
2022/09/11 18:28:19;;;;;;;0.20;0.00;;;26.80;99.90;;;;;;26039016;22;20175;-70
2022/09/11 18:38:24;;;;;;;0.20;0.00;;;26.70;99.90;;;;;;26040940;22;20178;-70
2022/09/11 18:48:34;;;;;;;0.20;0.00;;;26.60;99.90;;;;;;26008052;22;20194;-67
2022/09/11 18:58:39;;;;;;;0.20;0.00;;;26.50;99.90;;;;;;26009151;22;20155;-70
2022/09/11 19:08:46;;;;;;;0.20;0.00;;;26.30;99.90;;;;;;26010193;22;20196;-70
2022/09/11 19:18:50;;;;;;;0.20;0.00;;;26.20;99.90;;;;;;26034548;22;20149;-69
2022/09/11 19:28:56;;;;;;;0.20;0.00;;;26.20;99.90;;;;;;26038122;22;20195;-68
2022/09/11 19:39:01;;;;;;;0.20;0.00;;;26.10;99.90;;;;;;26044195;22;20203;-68
2022/09/11 19:49:07;;;;;;;0.20;0.00;;;25.80;99.90;;;;;;26015497;22;20196;-69
2022/09/11 19:59:11;;;;;;;0.20;0.00;;;25.40;99.90;;;;;;25989258;22;20164;-69
2022/09/11 20:09:17;;;;;;;0.20;0.00;;;25.30;99.90;;;;;;26044104;22;20184;-69
2022/09/11 20:19:36;;;;;;;0.20;0.00;;;25.00;99.90;;;;;;26044218;22;20231;-70
2022/09/11 20:29:42;;;;;;;0.20;0.00;;;25.00;99.90;;;;;;26015608;22;20184;-69
2022/09/11 20:39:46;;;;;;;0.20;0.00;;;24.90;99.90;;;;;;26041923;22;20160;-69
2022/09/11 20:49:51;;;;;;;0.20;0.00;;;24.90;99.90;;;;;;26043111;22;20231;-69
2022/09/11 20:59:55;;;;;;;0.20;0.00;;;24.70;99.90;;;;;;26042158;22;20891;-70
2022/09/11 21:10:00;;;;;;;0.20;0.00;;;24.60;99.90;;;;;;26042182;22;20183;-69
2022/09/11 21:20:04;;;;;;;0.20;0.00;;;24.40;99.90;;;;;;26040415;22;20171;-71
2022/09/11 21:30:11;;;;;;;0.20;0.00;;;24.30;99.90;;;;;;26035630;22;20180;-69
2022/09/11 21:40:15;;;;;;;0.20;0.00;;;24.20;99.90;;;;;;26014918;22;20164;-69
2022/09/11 21:50:20;;;;;;;0.20;0.00;;;24.20;99.90;;;;;;26040863;22;20208;-70
2022/09/11 22:00:24;;;;;;;0.20;0.00;;;24.00;99.90;;;;;;26013425;22;20232;-70
2022/09/11 22:10:29;;;;;;;0.20;0.00;;;24.00;99.90;;;;;;26041330;22;20203;-68
2022/09/11 22:20:33;;;;;;;0.20;0.00;;;23.90;99.90;;;;;;26037918;22;20172;-68
2022/09/11 22:30:42;;;;;;;0.20;0.00;;;23.80;99.90;;;;;;26038949;22;20188;-69
2022/09/11 22:40:52;;;;;;;0.20;0.00;;;23.70;99.90;;;;;;26041740;22;20222;-68
2022/09/11 22:50:58;;;;;;;0.20;0.00;;;23.70;99.90;;;;;;26041486;22;20196;-68
2022/09/11 23:01:02;;;;;;;0.20;0.00;;;23.70;99.90;;;;;;26043635;22;20163;-68
2022/09/11 23:11:08;;;;;;;0.20;0.00;;;23.60;99.90;;;;;;26013139;22;20775;-68
2022/09/11 23:21:12;;;;;;;0.20;0.00;;;23.50;99.90;;;;;;26043124;22;20171;-68
2022/09/11 23:31:19;;;;;;;0.20;0.00;;;23.50;99.90;;;;;;26015992;22;20188;-68
2022/09/11 23:41:24;;;;;;;0.20;0.00;;;23.60;99.90;;;;;;26013600;22;20183;-68
2022/09/11 23:51:29;;;;;;;0.20;0.00;;;23.70;99.90;;;;;;26042559;22;20204;-68
